sensor_id;sensor_type;location;lat;lon;timestamp;P1;durP1;ratioP1;P2;durP2;ratioP2
41217;SDS011;26950;50.960;7.138;2024-02-26T00:01:57;1.07;;;0.70;;
41217;SDS011;26950;50.960;7.138;2024-02-26T00:04:23;1.43;;;0.70;;
41217;SDS011;26950;50.960;7.138;2024-02-26T00:06:50;1.53;;;0.77;;
41217;SDS011;26950;50.960;7.138;2024-02-26T00:09:19;1.50;;;0.93;;
41217;SDS011;26950;50.960;7.138;2024-02-26T00:11:45;3.80;;;0.80;;
41217;SDS011;26950;50.960;7.138;2024-02-26T00:14:12;1.20;;;0.80;;
41217;SDS011;26950;50.960;7.138;2024-02-26T00:16:39;1.97;;;0.90;;
41217;SDS011;26950;50.960;7.138;2024-02-26T00:19:07;1.53;;;0.90;;
41217;SDS011;26950;50.960;7.138;2024-02-26T00:21:34;1.43;;;0.90;;
41217;SDS011;26950;50.960;7.138;2024-02-26T00:24:00;1.53;;;0.90;;
41217;SDS011;26950;50.960;7.138;2024-02-26T00:26:27;1.90;;;0.90;;
41217;SDS011;26950;50.960;7.138;2024-02-26T00:28:53;1.67;;;1.10;;
41217;SDS011;26950;50.960;7.138;2024-02-26T00:31:20;1.93;;;1.00;;
41217;SDS011;26950;50.960;7.138;2024-02-26T00:33:46;1.37;;;0.80;;
41217;SDS011;26950;50.960;7.138;2024-02-26T00:36:14;2.40;;;0.97;;
41217;SDS011;26950;50.960;7.138;2024-02-26T00:38:41;2.70;;;1.03;;
41217;SDS011;26950;50.960;7.138;2024-02-26T00:41:08;1.83;;;1.00;;
41217;SDS011;26950;50.960;7.138;2024-02-26T00:43:34;1.07;;;0.70;;
41217;SDS011;26950;50.960;7.138;2024-02-26T00:46:03;1.70;;;0.80;;
41217;SDS011;26950;50.960;7.138;2024-02-26T00:48:29;1.90;;;0.70;;
41217;SDS011;26950;50.960;7.138;2024-02-26T00:50:56;1.67;;;0.87;;
41217;SDS011;26950;50.960;7.138;2024-02-26T00:53:24;1.73;;;0.80;;
41217;SDS011;26950;50.960;7.138;2024-02-26T00:55:51;1.17;;;0.70;;
41217;SDS011;26950;50.960;7.138;2024-02-26T00:58:17;2.47;;;0.70;;
41217;SDS011;26950;50.960;7.138;2024-02-26T01:00:44;1.03;;;0.70;;
41217;SDS011;26950;50.960;7.138;2024-02-26T01:03:10;1.93;;;0.80;;
41217;SDS011;26950;50.960;7.138;2024-02-26T01:05:37;1.20;;;0.80;;
41217;SDS011;26950;50.960;7.138;2024-02-26T01:08:03;1.03;;;0.70;;
41217;SDS011;26950;50.960;7.138;2024-02-26T01:10:31;1.17;;;0.67;;
41217;SDS011;26950;50.960;7.138;2024-02-26T01:12:59;1.77;;;0.73;;
41217;SDS011;26950;50.960;7.138;2024-02-26T01:15:25;1.43;;;0.67;;
41217;SDS011;26950;50.960;7.138;2024-02-26T01:17:52;3.30;;;0.90;;
41217;SDS011;26950;50.960;7.138;2024-02-26T01:20:19;0.83;;;0.70;;
41217;SDS011;26950;50.960;7.138;2024-02-26T01:22:45;0.80;;;0.60;;
41217;SDS011;26950;50.960;7.138;2024-02-26T01:25:12;0.97;;;0.73;;
41217;SDS011;26950;50.960;7.138;2024-02-26T01:27:40;2.07;;;0.83;;
41217;SDS011;26950;50.960;7.138;2024-02-26T01:30:09;2.10;;;0.97;;
41217;SDS011;26950;50.960;7.138;2024-02-26T01:32:36;3.57;;;0.90;;
41217;SDS011;26950;50.960;7.138;2024-02-26T01:35:03;1.20;;;0.73;;
41217;SDS011;26950;50.960;7.138;2024-02-26T01:37:32;1.43;;;0.80;;
41217;SDS011;26950;50.960;7.138;2024-02-26T01:39:59;1.50;;;0.80;;
41217;SDS011;26950;50.960;7.138;2024-02-26T01:42:29;1.53;;;0.90;;
41217;SDS011;26950;50.960;7.138;2024-02-26T01:44:57;1.37;;;0.77;;
41217;SDS011;26950;50.960;7.138;2024-02-26T01:47:23;1.20;;;0.83;;
41217;SDS011;26950;50.960;7.138;2024-02-26T01:49:51;1.67;;;0.90;;
41217;SDS011;26950;50.960;7.138;2024-02-26T01:52:18;0.90;;;0.70;;
41217;SDS011;26950;50.960;7.138;2024-02-26T01:54:45;1.33;;;0.60;;
41217;SDS011;26950;50.960;7.138;2024-02-26T01:57:12;1.33;;;0.77;;
41217;SDS011;26950;50.960;7.138;2024-02-26T01:59:40;1.90;;;0.80;;
41217;SDS011;26950;50.960;7.138;2024-02-26T02:02:09;1.33;;;0.70;;
41217;SDS011;26950;50.960;7.138;2024-02-26T02:04:38;1.57;;;0.70;;
41217;SDS011;26950;50.960;7.138;2024-02-26T02:07:05;3.73;;;0.93;;
41217;SDS011;26950;50.960;7.138;2024-02-26T02:09:32;2.33;;;0.83;;
41217;SDS011;26950;50.960;7.138;2024-02-26T02:11:58;1.90;;;0.80;;
41217;SDS011;26950;50.960;7.138;2024-02-26T02:14:26;1.33;;;0.70;;
41217;SDS011;26950;50.960;7.138;2024-02-26T02:16:53;1.37;;;0.70;;
41217;SDS011;26950;50.960;7.138;2024-02-26T02:19:20;1.73;;;0.77;;
41217;SDS011;26950;50.960;7.138;2024-02-26T02:21:48;4.13;;;0.80;;
41217;SDS011;26950;50.960;7.138;2024-02-26T02:24:15;1.40;;;0.70;;
41217;SDS011;26950;50.960;7.138;2024-02-26T02:26:41;0.63;;;0.63;;
41217;SDS011;26950;50.960;7.138;2024-02-26T02:29:08;1.53;;;0.80;;
41217;SDS011;26950;50.960;7.138;2024-02-26T02:31:35;1.27;;;0.60;;
41217;SDS011;26950;50.960;7.138;2024-02-26T02:34:01;1.17;;;0.70;;
41217;SDS011;26950;50.960;7.138;2024-02-26T02:36:28;1.50;;;0.80;;
41217;SDS011;26950;50.960;7.138;2024-02-26T02:38:56;3.53;;;0.77;;
41217;SDS011;26950;50.960;7.138;2024-02-26T02:41:23;1.33;;;0.80;;
41217;SDS011;26950;50.960;7.138;2024-02-26T02:43:51;0.70;;;0.60;;
41217;SDS011;26950;50.960;7.138;2024-02-26T02:46:19;1.10;;;0.67;;
41217;SDS011;26950;50.960;7.138;2024-02-26T02:48:46;1.83;;;0.87;;
41217;SDS011;26950;50.960;7.138;2024-02-26T02:51:12;0.80;;;0.50;;
41217;SDS011;26950;50.960;7.138;2024-02-26T02:53:39;2.37;;;0.90;;
41217;SDS011;26950;50.960;7.138;2024-02-26T02:56:07;0.83;;;0.60;;
41217;SDS011;26950;50.960;7.138;2024-02-26T02:58:33;1.13;;;0.80;;
41217;SDS011;26950;50.960;7.138;2024-02-26T03:01:00;2.03;;;0.83;;
41217;SDS011;26950;50.960;7.138;2024-02-26T03:03:26;1.17;;;0.70;;
41217;SDS011;26950;50.960;7.138;2024-02-26T03:05:53;1.00;;;0.70;;
41217;SDS011;26950;50.960;7.138;2024-02-26T03:08:20;1.80;;;0.80;;
41217;SDS011;26950;50.960;7.138;2024-02-26T03:10:47;1.80;;;0.70;;
41217;SDS011;26950;50.960;7.138;2024-02-26T03:13:15;1.47;;;0.70;;
41217;SDS011;26950;50.960;7.138;2024-02-26T03:15:41;1.50;;;0.70;;
41217;SDS011;26950;50.960;7.138;2024-02-26T03:18:08;1.20;;;0.70;;
41217;SDS011;26950;50.960;7.138;2024-02-26T03:20:34;0.80;;;0.70;;
41217;SDS011;26950;50.960;7.138;2024-02-26T03:23:02;1.67;;;0.63;;
41217;SDS011;26950;50.960;7.138;2024-02-26T03:25:28;1.57;;;0.63;;
41217;SDS011;26950;50.960;7.138;2024-02-26T03:27:55;1.73;;;0.70;;
41217;SDS011;26950;50.960;7.138;2024-02-26T03:30:23;2.00;;;0.60;;
41217;SDS011;26950;50.960;7.138;2024-02-26T03:32:49;1.00;;;0.70;;
41217;SDS011;26950;50.960;7.138;2024-02-26T03:35:15;1.13;;;0.77;;
41217;SDS011;26950;50.960;7.138;2024-02-26T03:37:42;2.30;;;0.73;;
41217;SDS011;26950;50.960;7.138;2024-02-26T03:40:09;1.87;;;0.70;;
41217;SDS011;26950;50.960;7.138;2024-02-26T03:42:38;0.73;;;0.60;;
41217;SDS011;26950;50.960;7.138;2024-02-26T03:45:05;1.47;;;0.80;;
41217;SDS011;26950;50.960;7.138;2024-02-26T03:47:33;0.87;;;0.73;;
41217;SDS011;26950;50.960;7.138;2024-02-26T03:50:00;1.53;;;0.70;;
41217;SDS011;26950;50.960;7.138;2024-02-26T03:52:27;0.87;;;0.70;;
41217;SDS011;26950;50.960;7.138;2024-02-26T03:54:53;1.20;;;0.70;;
41217;SDS011;26950;50.960;7.138;2024-02-26T03:57:19;2.10;;;0.77;;
41217;SDS011;26950;50.960;7.138;2024-02-26T03:59:46;1.17;;;0.77;;
41217;SDS011;26950;50.960;7.138;2024-02-26T04:02:12;2.00;;;0.80;;
41217;SDS011;26950;50.960;7.138;2024-02-26T04:04:40;3.70;;;0.93;;
41217;SDS011;26950;50.960;7.138;2024-02-26T04:07:07;2.53;;;0.83;;
41217;SDS011;26950;50.960;7.138;2024-02-26T04:09:33;1.37;;;0.67;;
41217;SDS011;26950;50.960;7.138;2024-02-26T04:12:00;1.90;;;0.80;;
41217;SDS011;26950;50.960;7.138;2024-02-26T04:14:26;2.63;;;0.87;;
41217;SDS011;26950;50.960;7.138;2024-02-26T04:16:53;1.47;;;0.80;;
41217;SDS011;26950;50.960;7.138;2024-02-26T04:19:19;1.37;;;0.77;;
41217;SDS011;26950;50.960;7.138;2024-02-26T04:21:47;1.10;;;0.77;;
41217;SDS011;26950;50.960;7.138;2024-02-26T04:24:14;2.40;;;0.73;;
41217;SDS011;26950;50.960;7.138;2024-02-26T04:26:41;0.70;;;0.60;;
41217;SDS011;26950;50.960;7.138;2024-02-26T04:29:07;1.87;;;0.70;;
41217;SDS011;26950;50.960;7.138;2024-02-26T04:31:34;0.80;;;0.60;;
41217;SDS011;26950;50.960;7.138;2024-02-26T04:34:00;1.57;;;0.80;;
41217;SDS011;26950;50.960;7.138;2024-02-26T04:36:27;0.80;;;0.73;;
41217;SDS011;26950;50.960;7.138;2024-02-26T04:38:55;3.00;;;0.90;;
41217;SDS011;26950;50.960;7.138;2024-02-26T04:41:21;1.93;;;0.80;;
41217;SDS011;26950;50.960;7.138;2024-02-26T04:43:48;1.57;;;0.97;;
41217;SDS011;26950;50.960;7.138;2024-02-26T04:46:16;1.37;;;0.70;;
41217;SDS011;26950;50.960;7.138;2024-02-26T04:48:42;1.20;;;0.70;;
41217;SDS011;26950;50.960;7.138;2024-02-26T04:51:10;2.00;;;0.90;;
41217;SDS011;26950;50.960;7.138;2024-02-26T04:53:37;2.10;;;1.00;;
41217;SDS011;26950;50.960;7.138;2024-02-26T04:56:05;2.50;;;0.80;;
41217;SDS011;26950;50.960;7.138;2024-02-26T04:58:32;1.43;;;0.70;;
41217;SDS011;26950;50.960;7.138;2024-02-26T05:00:59;2.00;;;1.00;;
41217;SDS011;26950;50.960;7.138;2024-02-26T05:03:25;1.70;;;0.80;;
41217;SDS011;26950;50.960;7.138;2024-02-26T05:05:52;1.57;;;0.77;;
41217;SDS011;26950;50.960;7.138;2024-02-26T05:08:18;1.43;;;0.90;;
41217;SDS011;26950;50.960;7.138;2024-02-26T05:10:44;1.83;;;0.73;;
41217;SDS011;26950;50.960;7.138;2024-02-26T05:13:12;2.93;;;1.40;;
41217;SDS011;26950;50.960;7.138;2024-02-26T05:15:40;2.03;;;0.80;;
41217;SDS011;26950;50.960;7.138;2024-02-26T05:18:07;1.53;;;0.70;;
41217;SDS011;26950;50.960;7.138;2024-02-26T05:20:33;1.93;;;0.93;;
41217;SDS011;26950;50.960;7.138;2024-02-26T05:23:01;2.63;;;0.90;;
41217;SDS011;26950;50.960;7.138;2024-02-26T05:25:28;1.07;;;0.70;;
41217;SDS011;26950;50.960;7.138;2024-02-26T05:27:55;0.80;;;0.77;;
41217;SDS011;26950;50.960;7.138;2024-02-26T05:30:23;1.33;;;1.00;;
41217;SDS011;26950;50.960;7.138;2024-02-26T05:32:52;1.60;;;0.90;;
41217;SDS011;26950;50.960;7.138;2024-02-26T05:35:18;1.00;;;0.80;;
41217;SDS011;26950;50.960;7.138;2024-02-26T05:37:44;2.50;;;1.00;;
41217;SDS011;26950;50.960;7.138;2024-02-26T05:40:11;1.00;;;0.83;;
41217;SDS011;26950;50.960;7.138;2024-02-26T05:42:38;1.30;;;0.90;;
41217;SDS011;26950;50.960;7.138;2024-02-26T05:45:05;2.20;;;0.80;;
41217;SDS011;26950;50.960;7.138;2024-02-26T05:47:34;1.40;;;1.00;;
41217;SDS011;26950;50.960;7.138;2024-02-26T05:50:07;2.00;;;1.07;;
41217;SDS011;26950;50.960;7.138;2024-02-26T05:52:36;1.97;;;0.90;;
41217;SDS011;26950;50.960;7.138;2024-02-26T05:55:03;2.30;;;0.80;;
41217;SDS011;26950;50.960;7.138;2024-02-26T05:57:29;2.00;;;1.00;;
41217;SDS011;26950;50.960;7.138;2024-02-26T05:59:56;2.00;;;0.93;;
41217;SDS011;26950;50.960;7.138;2024-02-26T06:02:25;2.83;;;1.00;;
41217;SDS011;26950;50.960;7.138;2024-02-26T06:04:53;2.17;;;1.20;;
41217;SDS011;26950;50.960;7.138;2024-02-26T06:07:20;2.50;;;0.90;;
41217;SDS011;26950;50.960;7.138;2024-02-26T06:09:46;2.63;;;0.97;;
41217;SDS011;26950;50.960;7.138;2024-02-26T06:12:13;2.50;;;1.10;;
41217;SDS011;26950;50.960;7.138;2024-02-26T06:14:40;2.77;;;1.10;;
41217;SDS011;26950;50.960;7.138;2024-02-26T06:17:07;1.73;;;0.97;;
41217;SDS011;26950;50.960;7.138;2024-02-26T06:19:34;4.27;;;1.30;;
41217;SDS011;26950;50.960;7.138;2024-02-26T06:22:02;5.43;;;1.40;;
41217;SDS011;26950;50.960;7.138;2024-02-26T06:24:29;2.73;;;1.60;;
41217;SDS011;26950;50.960;7.138;2024-02-26T06:26:55;3.10;;;1.67;;
41217;SDS011;26950;50.960;7.138;2024-02-26T06:29:21;1.80;;;1.30;;
41217;SDS011;26950;50.960;7.138;2024-02-26T06:31:48;2.00;;;1.30;;
41217;SDS011;26950;50.960;7.138;2024-02-26T06:34:15;2.13;;;1.70;;
41217;SDS011;26950;50.960;7.138;2024-02-26T06:36:42;2.47;;;1.20;;
41217;SDS011;26950;50.960;7.138;2024-02-26T06:39:10;3.77;;;1.20;;
41217;SDS011;26950;50.960;7.138;2024-02-26T06:41:37;3.53;;;1.40;;
41217;SDS011;26950;50.960;7.138;2024-02-26T06:44:04;4.37;;;1.50;;
41217;SDS011;26950;50.960;7.138;2024-02-26T06:46:31;2.17;;;1.27;;
41217;SDS011;26950;50.960;7.138;2024-02-26T06:48:57;2.63;;;1.60;;
41217;SDS011;26950;50.960;7.138;2024-02-26T06:51:24;1.97;;;1.20;;
41217;SDS011;26950;50.960;7.138;2024-02-26T06:53:51;3.77;;;1.60;;
41217;SDS011;26950;50.960;7.138;2024-02-26T06:56:18;1.90;;;1.33;;
41217;SDS011;26950;50.960;7.138;2024-02-26T06:58:45;1.90;;;1.20;;
41217;SDS011;26950;50.960;7.138;2024-02-26T07:01:12;2.57;;;1.30;;
41217;SDS011;26950;50.960;7.138;2024-02-26T07:03:39;1.63;;;1.23;;
41217;SDS011;26950;50.960;7.138;2024-02-26T07:06:06;2.87;;;1.47;;
41217;SDS011;26950;50.960;7.138;2024-02-26T07:08:33;2.73;;;1.23;;
41217;SDS011;26950;50.960;7.138;2024-02-26T07:11:00;5.37;;;1.27;;
41217;SDS011;26950;50.960;7.138;2024-02-26T07:13:28;1.63;;;1.23;;
41217;SDS011;26950;50.960;7.138;2024-02-26T07:15:55;3.00;;;1.30;;
41217;SDS011;26950;50.960;7.138;2024-02-26T07:18:21;1.90;;;1.20;;
41217;SDS011;26950;50.960;7.138;2024-02-26T07:20:47;2.80;;;1.30;;
41217;SDS011;26950;50.960;7.138;2024-02-26T07:23:14;3.23;;;1.20;;
41217;SDS011;26950;50.960;7.138;2024-02-26T07:25:41;1.17;;;1.07;;
41217;SDS011;26950;50.960;7.138;2024-02-26T07:28:09;2.50;;;1.10;;
41217;SDS011;26950;50.960;7.138;2024-02-26T07:30:37;1.97;;;1.30;;
41217;SDS011;26950;50.960;7.138;2024-02-26T07:33:04;4.60;;;1.40;;
41217;SDS011;26950;50.960;7.138;2024-02-26T07:35:31;3.83;;;1.20;;
41217;SDS011;26950;50.960;7.138;2024-02-26T07:37:58;3.57;;;1.30;;
41217;SDS011;26950;50.960;7.138;2024-02-26T07:40:25;2.20;;;1.30;;
41217;SDS011;26950;50.960;7.138;2024-02-26T07:42:51;2.83;;;1.07;;
41217;SDS011;26950;50.960;7.138;2024-02-26T07:45:18;3.67;;;1.27;;
41217;SDS011;26950;50.960;7.138;2024-02-26T07:47:47;2.53;;;1.30;;
41217;SDS011;26950;50.960;7.138;2024-02-26T07:50:14;3.60;;;1.30;;
41217;SDS011;26950;50.960;7.138;2024-02-26T07:52:40;2.30;;;1.23;;
41217;SDS011;26950;50.960;7.138;2024-02-26T07:55:07;1.73;;;1.20;;
41217;SDS011;26950;50.960;7.138;2024-02-26T07:57:34;2.07;;;1.17;;
41217;SDS011;26950;50.960;7.138;2024-02-26T08:00:00;2.03;;;1.33;;
41217;SDS011;26950;50.960;7.138;2024-02-26T08:02:27;2.47;;;1.10;;
41217;SDS011;26950;50.960;7.138;2024-02-26T08:04:55;1.67;;;1.00;;
41217;SDS011;26950;50.960;7.138;2024-02-26T08:07:22;2.17;;;1.27;;
41217;SDS011;26950;50.960;7.138;2024-02-26T08:09:48;1.90;;;1.40;;
41217;SDS011;26950;50.960;7.138;2024-02-26T08:12:15;2.30;;;1.20;;
41217;SDS011;26950;50.960;7.138;2024-02-26T08:14:41;1.73;;;1.30;;
41217;SDS011;26950;50.960;7.138;2024-02-26T08:17:09;1.67;;;1.10;;
41217;SDS011;26950;50.960;7.138;2024-02-26T08:19:35;2.20;;;1.10;;
41217;SDS011;26950;50.960;7.138;2024-02-26T08:22:03;1.73;;;1.07;;
41217;SDS011;26950;50.960;7.138;2024-02-26T08:24:30;2.47;;;1.33;;
41217;SDS011;26950;50.960;7.138;2024-02-26T08:26:57;1.60;;;1.20;;
41217;SDS011;26950;50.960;7.138;2024-02-26T08:29:23;2.97;;;1.40;;
41217;SDS011;26950;50.960;7.138;2024-02-26T08:31:49;2.07;;;1.30;;
41217;SDS011;26950;50.960;7.138;2024-02-26T08:34:16;1.83;;;1.20;;
41217;SDS011;26950;50.960;7.138;2024-02-26T08:36:42;1.73;;;1.10;;
41217;SDS011;26950;50.960;7.138;2024-02-26T08:39:11;3.33;;;1.20;;
41217;SDS011;26950;50.960;7.138;2024-02-26T08:41:38;3.87;;;1.10;;
41217;SDS011;26950;50.960;7.138;2024-02-26T08:44:05;2.60;;;1.30;;
41217;SDS011;26950;50.960;7.138;2024-02-26T08:46:31;1.67;;;1.20;;
41217;SDS011;26950;50.960;7.138;2024-02-26T08:48:58;2.27;;;1.23;;
41217;SDS011;26950;50.960;7.138;2024-02-26T08:51:25;2.70;;;1.37;;
41217;SDS011;26950;50.960;7.138;2024-02-26T08:53:51;3.63;;;1.37;;
41217;SDS011;26950;50.960;7.138;2024-02-26T08:56:20;3.07;;;1.50;;
41217;SDS011;26950;50.960;7.138;2024-02-26T08:58:46;2.13;;;1.20;;
41217;SDS011;26950;50.960;7.138;2024-02-26T09:01:15;1.60;;;1.10;;
41217;SDS011;26950;50.960;7.138;2024-02-26T09:03:42;1.60;;;1.33;;
41217;SDS011;26950;50.960;7.138;2024-02-26T09:06:08;2.60;;;1.60;;
41217;SDS011;26950;50.960;7.138;2024-02-26T09:08:36;2.37;;;1.20;;
41217;SDS011;26950;50.960;7.138;2024-02-26T09:11:03;2.57;;;1.40;;
41217;SDS011;26950;50.960;7.138;2024-02-26T09:13:32;3.63;;;1.50;;
41217;SDS011;26950;50.960;7.138;2024-02-26T09:15:58;3.50;;;1.60;;
41217;SDS011;26950;50.960;7.138;2024-02-26T09:18:25;2.27;;;1.60;;
41217;SDS011;26950;50.960;7.138;2024-02-26T09:20:53;2.67;;;1.50;;
41217;SDS011;26950;50.960;7.138;2024-02-26T09:23:20;2.63;;;1.53;;
41217;SDS011;26950;50.960;7.138;2024-02-26T09:25:46;2.83;;;1.43;;
41217;SDS011;26950;50.960;7.138;2024-02-26T09:28:13;2.63;;;1.30;;
41217;SDS011;26950;50.960;7.138;2024-02-26T09:30:43;2.10;;;1.40;;
41217;SDS011;26950;50.960;7.138;2024-02-26T09:33:09;2.70;;;1.47;;
41217;SDS011;26950;50.960;7.138;2024-02-26T09:35:36;2.73;;;1.50;;
41217;SDS011;26950;50.960;7.138;2024-02-26T09:38:03;2.00;;;1.33;;
41217;SDS011;26950;50.960;7.138;2024-02-26T09:40:30;2.50;;;1.40;;
41217;SDS011;26950;50.960;7.138;2024-02-26T09:42:58;2.27;;;1.50;;
41217;SDS011;26950;50.960;7.138;2024-02-26T09:45:26;2.90;;;1.33;;
41217;SDS011;26950;50.960;7.138;2024-02-26T09:47:56;4.37;;;1.77;;
41217;SDS011;26950;50.960;7.138;2024-02-26T09:50:23;2.47;;;1.53;;
41217;SDS011;26950;50.960;7.138;2024-02-26T09:52:50;1.43;;;1.27;;
41217;SDS011;26950;50.960;7.138;2024-02-26T09:55:17;3.80;;;1.73;;
41217;SDS011;26950;50.960;7.138;2024-02-26T09:57:45;2.47;;;1.60;;
41217;SDS011;26950;50.960;7.138;2024-02-26T10:00:13;2.27;;;1.50;;
41217;SDS011;26950;50.960;7.138;2024-02-26T10:02:44;3.90;;;1.70;;
41217;SDS011;26950;50.960;7.138;2024-02-26T10:05:16;1.80;;;1.50;;
41217;SDS011;26950;50.960;7.138;2024-02-26T10:07:44;2.87;;;1.80;;
41217;SDS011;26950;50.960;7.138;2024-02-26T10:10:10;4.60;;;1.80;;
41217;SDS011;26950;50.960;7.138;2024-02-26T10:12:37;3.00;;;1.60;;
41217;SDS011;26950;50.960;7.138;2024-02-26T10:15:03;3.13;;;1.40;;
41217;SDS011;26950;50.960;7.138;2024-02-26T10:17:30;4.87;;;1.70;;
41217;SDS011;26950;50.960;7.138;2024-02-26T10:20:05;3.23;;;1.80;;
41217;SDS011;26950;50.960;7.138;2024-02-26T10:22:39;3.03;;;1.90;;
41217;SDS011;26950;50.960;7.138;2024-02-26T10:25:05;3.43;;;2.00;;
41217;SDS011;26950;50.960;7.138;2024-02-26T10:27:33;3.37;;;1.77;;
41217;SDS011;26950;50.960;7.138;2024-02-26T10:30:01;2.10;;;1.77;;
41217;SDS011;26950;50.960;7.138;2024-02-26T10:32:28;2.60;;;1.77;;
41217;SDS011;26950;50.960;7.138;2024-02-26T10:34:56;4.10;;;2.00;;
41217;SDS011;26950;50.960;7.138;2024-02-26T10:37:22;3.10;;;1.87;;
41217;SDS011;26950;50.960;7.138;2024-02-26T10:39:51;3.13;;;2.00;;
41217;SDS011;26950;50.960;7.138;2024-02-26T10:42:18;4.80;;;2.13;;
41217;SDS011;26950;50.960;7.138;2024-02-26T10:44:44;3.87;;;2.17;;
41217;SDS011;26950;50.960;7.138;2024-02-26T10:47:13;2.53;;;1.70;;
41217;SDS011;26950;50.960;7.138;2024-02-26T10:49:44;2.40;;;1.80;;
41217;SDS011;26950;50.960;7.138;2024-02-26T10:52:12;2.33;;;1.70;;
41217;SDS011;26950;50.960;7.138;2024-02-26T10:54:39;3.90;;;1.83;;
41217;SDS011;26950;50.960;7.138;2024-02-26T10:57:10;2.93;;;1.60;;
41217;SDS011;26950;50.960;7.138;2024-02-26T10:59:37;3.27;;;1.90;;
41217;SDS011;26950;50.960;7.138;2024-02-26T11:02:05;3.60;;;2.00;;
41217;SDS011;26950;50.960;7.138;2024-02-26T11:04:35;2.50;;;1.80;;
41217;SDS011;26950;50.960;7.138;2024-02-26T11:07:03;3.30;;;1.80;;
41217;SDS011;26950;50.960;7.138;2024-02-26T11:09:31;3.43;;;1.80;;
41217;SDS011;26950;50.960;7.138;2024-02-26T11:11:58;2.30;;;1.70;;
41217;SDS011;26950;50.960;7.138;2024-02-26T11:14:27;4.70;;;1.80;;
41217;SDS011;26950;50.960;7.138;2024-02-26T11:16:56;4.40;;;1.60;;
41217;SDS011;26950;50.960;7.138;2024-02-26T11:19:23;3.20;;;1.63;;
41217;SDS011;26950;50.960;7.138;2024-02-26T11:21:51;2.70;;;1.90;;
41217;SDS011;26950;50.960;7.138;2024-02-26T11:24:17;2.33;;;1.77;;
41217;SDS011;26950;50.960;7.138;2024-02-26T11:26:45;3.43;;;1.83;;
41217;SDS011;26950;50.960;7.138;2024-02-26T11:29:16;2.20;;;1.50;;
41217;SDS011;26950;50.960;7.138;2024-02-26T11:31:48;3.90;;;1.90;;
41217;SDS011;26950;50.960;7.138;2024-02-26T11:34:15;3.47;;;1.80;;
41217;SDS011;26950;50.960;7.138;2024-02-26T11:36:42;4.57;;;2.20;;
41217;SDS011;26950;50.960;7.138;2024-02-26T11:39:08;3.37;;;2.00;;
41217;SDS011;26950;50.960;7.138;2024-02-26T11:41:37;3.20;;;1.80;;
41217;SDS011;26950;50.960;7.138;2024-02-26T11:44:04;2.37;;;1.57;;
41217;SDS011;26950;50.960;7.138;2024-02-26T11:46:32;2.47;;;1.47;;
41217;SDS011;26950;50.960;7.138;2024-02-26T11:49:01;2.57;;;1.77;;
41217;SDS011;26950;50.960;7.138;2024-02-26T11:51:32;2.90;;;1.90;;
41217;SDS011;26950;50.960;7.138;2024-02-26T11:53:59;3.60;;;1.80;;
41217;SDS011;26950;50.960;7.138;2024-02-26T11:56:26;2.80;;;1.70;;
41217;SDS011;26950;50.960;7.138;2024-02-26T11:58:57;4.37;;;1.87;;
41217;SDS011;26950;50.960;7.138;2024-02-26T12:01:40;3.17;;;1.70;;
41217;SDS011;26950;50.960;7.138;2024-02-26T12:04:11;3.37;;;2.23;;
41217;SDS011;26950;50.960;7.138;2024-02-26T12:06:40;3.93;;;1.93;;
41217;SDS011;26950;50.960;7.138;2024-02-26T12:09:11;4.83;;;2.20;;
41217;SDS011;26950;50.960;7.138;2024-02-26T12:11:39;3.20;;;1.70;;
41217;SDS011;26950;50.960;7.138;2024-02-26T12:14:07;5.53;;;2.10;;
41217;SDS011;26950;50.960;7.138;2024-02-26T12:16:35;2.80;;;2.30;;
41217;SDS011;26950;50.960;7.138;2024-02-26T12:19:03;6.63;;;2.10;;
41217;SDS011;26950;50.960;7.138;2024-02-26T12:21:32;3.57;;;2.10;;
41217;SDS011;26950;50.960;7.138;2024-02-26T12:24:07;3.13;;;2.07;;
41217;SDS011;26950;50.960;7.138;2024-02-26T12:26:36;3.40;;;2.17;;
41217;SDS011;26950;50.960;7.138;2024-02-26T12:29:02;3.97;;;1.90;;
41217;SDS011;26950;50.960;7.138;2024-02-26T12:31:29;4.00;;;2.30;;
41217;SDS011;26950;50.960;7.138;2024-02-26T12:33:56;6.53;;;2.33;;
41217;SDS011;26950;50.960;7.138;2024-02-26T12:36:23;4.07;;;2.00;;
41217;SDS011;26950;50.960;7.138;2024-02-26T12:38:51;4.33;;;2.10;;
41217;SDS011;26950;50.960;7.138;2024-02-26T12:41:17;5.07;;;2.10;;
41217;SDS011;26950;50.960;7.138;2024-02-26T12:43:44;5.37;;;2.50;;
41217;SDS011;26950;50.960;7.138;2024-02-26T12:46:11;4.33;;;2.37;;
41217;SDS011;26950;50.960;7.138;2024-02-26T12:48:37;3.80;;;2.20;;
41217;SDS011;26950;50.960;7.138;2024-02-26T12:51:04;3.83;;;2.40;;
41217;SDS011;26950;50.960;7.138;2024-02-26T12:53:31;6.37;;;2.33;;
41217;SDS011;26950;50.960;7.138;2024-02-26T12:55:59;4.50;;;2.30;;
41217;SDS011;26950;50.960;7.138;2024-02-26T12:58:26;4.17;;;2.30;;
41217;SDS011;26950;50.960;7.138;2024-02-26T13:00:53;3.77;;;2.10;;
41217;SDS011;26950;50.960;7.138;2024-02-26T13:03:20;3.00;;;2.00;;
41217;SDS011;26950;50.960;7.138;2024-02-26T13:05:48;8.10;;;2.20;;
41217;SDS011;26950;50.960;7.138;2024-02-26T13:08:17;3.67;;;2.10;;
41217;SDS011;26950;50.960;7.138;2024-02-26T13:10:45;6.90;;;2.40;;
41217;SDS011;26950;50.960;7.138;2024-02-26T13:13:14;8.90;;;2.80;;
41217;SDS011;26950;50.960;7.138;2024-02-26T13:15:41;3.60;;;2.20;;
41217;SDS011;26950;50.960;7.138;2024-02-26T13:18:11;3.70;;;2.30;;
41217;SDS011;26950;50.960;7.138;2024-02-26T13:20:38;4.50;;;2.70;;
41217;SDS011;26950;50.960;7.138;2024-02-26T13:23:07;5.37;;;2.50;;
41217;SDS011;26950;50.960;7.138;2024-02-26T13:25:34;3.23;;;2.13;;
41217;SDS011;26950;50.960;7.138;2024-02-26T13:28:05;5.07;;;2.80;;
41217;SDS011;26950;50.960;7.138;2024-02-26T13:30:34;4.67;;;2.57;;
41217;SDS011;26950;50.960;7.138;2024-02-26T13:33:06;7.07;;;2.60;;
41217;SDS011;26950;50.960;7.138;2024-02-26T13:35:34;4.63;;;2.70;;
41217;SDS011;26950;50.960;7.138;2024-02-26T13:38:01;3.73;;;2.73;;
41217;SDS011;26950;50.960;7.138;2024-02-26T13:40:28;5.00;;;2.60;;
41217;SDS011;26950;50.960;7.138;2024-02-26T13:42:55;5.30;;;2.67;;
41217;SDS011;26950;50.960;7.138;2024-02-26T13:45:21;8.67;;;2.80;;
41217;SDS011;26950;50.960;7.138;2024-02-26T13:47:49;5.33;;;2.80;;
41217;SDS011;26950;50.960;7.138;2024-02-26T13:50:16;4.13;;;2.90;;
41217;SDS011;26950;50.960;7.138;2024-02-26T13:52:46;6.63;;;3.47;;
41217;SDS011;26950;50.960;7.138;2024-02-26T13:55:12;5.07;;;3.10;;
41217;SDS011;26950;50.960;7.138;2024-02-26T13:57:40;7.07;;;3.27;;
41217;SDS011;26950;50.960;7.138;2024-02-26T14:00:07;5.13;;;2.97;;
41217;SDS011;26950;50.960;7.138;2024-02-26T14:02:36;8.50;;;3.17;;
41217;SDS011;26950;50.960;7.138;2024-02-26T14:05:04;5.17;;;3.53;;
41217;SDS011;26950;50.960;7.138;2024-02-26T14:07:31;5.13;;;3.23;;
41217;SDS011;26950;50.960;7.138;2024-02-26T14:09:58;7.03;;;3.87;;
41217;SDS011;26950;50.960;7.138;2024-02-26T14:12:24;5.83;;;3.40;;
41217;SDS011;26950;50.960;7.138;2024-02-26T14:14:51;5.43;;;3.27;;
41217;SDS011;26950;50.960;7.138;2024-02-26T14:17:18;5.70;;;3.43;;
41217;SDS011;26950;50.960;7.138;2024-02-26T14:19:45;9.30;;;3.63;;
41217;SDS011;26950;50.960;7.138;2024-02-26T14:22:14;7.63;;;3.70;;
41217;SDS011;26950;50.960;7.138;2024-02-26T14:24:41;5.53;;;3.57;;
41217;SDS011;26950;50.960;7.138;2024-02-26T14:27:08;7.23;;;3.70;;
41217;SDS011;26950;50.960;7.138;2024-02-26T14:29:40;5.67;;;3.70;;
41217;SDS011;26950;50.960;7.138;2024-02-26T14:32:08;7.23;;;3.80;;
41217;SDS011;26950;50.960;7.138;2024-02-26T14:34:35;6.13;;;3.57;;
41217;SDS011;26950;50.960;7.138;2024-02-26T14:37:02;6.97;;;3.87;;
41217;SDS011;26950;50.960;7.138;2024-02-26T14:39:30;7.60;;;3.87;;
41217;SDS011;26950;50.960;7.138;2024-02-26T14:41:57;6.80;;;3.60;;
41217;SDS011;26950;50.960;7.138;2024-02-26T14:44:24;8.83;;;3.97;;
41217;SDS011;26950;50.960;7.138;2024-02-26T14:46:50;6.90;;;3.70;;
41217;SDS011;26950;50.960;7.138;2024-02-26T14:49:17;5.97;;;3.60;;